sensor_id;sensor_type;location;lat;lon;timestamp;temperature;humidity
13354;DHT22;6746;50.892;4.064;2023-05-10T00:00:28;12.80;99.90
13354;DHT22;6746;50.892;4.064;2023-05-10T00:03:09;12.90;99.90
13354;DHT22;6746;50.892;4.064;2023-05-10T00:05:47;12.80;99.90
13354;DHT22;6746;50.892;4.064;2023-05-10T00:08:28;12.80;99.90
13354;DHT22;6746;50.892;4.064;2023-05-10T00:11:06;12.80;99.90
13354;DHT22;6746;50.892;4.064;2023-05-10T00:13:54;12.70;99.90
13354;DHT22;6746;50.892;4.064;2023-05-10T00:16:41;12.70;99.90
13354;DHT22;6746;50.892;4.064;2023-05-10T00:19:29;12.60;99.90
13354;DHT22;6746;50.892;4.064;2023-05-10T00:22:17;12.60;99.90
13354;DHT22;6746;50.892;4.064;2023-05-10T00:25:05;12.60;99.90
13354;DHT22;6746;50.892;4.064;2023-05-10T00:27:52;12.50;99.90
13354;DHT22;6746;50.892;4.064;2023-05-10T00:30:40;12.60;99.90
13354;DHT22;6746;50.892;4.064;2023-05-10T00:33:23;12.60;99.90
13354;DHT22;6746;50.892;4.064;2023-05-10T00:36:01;12.60;99.90
13354;DHT22;6746;50.892;4.064;2023-05-10T00:38:42;12.60;99.90
13354;DHT22;6746;50.892;4.064;2023-05-10T00:41:20;12.60;99.90
13354;DHT22;6746;50.892;4.064;2023-05-10T00:44:01;12.60;99.90
13354;DHT22;6746;50.892;4.064;2023-05-10T00:46:39;12.70;99.90
13354;DHT22;6746;50.892;4.064;2023-05-10T00:49:17;12.70;99.90
13354;DHT22;6746;50.892;4.064;2023-05-10T00:51:55;12.70;99.90
13354;DHT22;6746;50.892;4.064;2023-05-10T00:54:41;12.70;99.90
13354;DHT22;6746;50.892;4.064;2023-05-10T00:57:19;12.70;99.90
13354;DHT22;6746;50.892;4.064;2023-05-10T01:00:05;12.70;99.90
13354;DHT22;6746;50.892;4.064;2023-05-10T01:02:46;12.70;99.90
13354;DHT22;6746;50.892;4.064;2023-05-10T01:05:31;12.70;99.90
13354;DHT22;6746;50.892;4.064;2023-05-10T01:08:09;12.70;99.90
13354;DHT22;6746;50.892;4.064;2023-05-10T01:10:47;12.80;99.90
13354;DHT22;6746;50.892;4.064;2023-05-10T01:13:32;12.80;99.90
13354;DHT22;6746;50.892;4.064;2023-05-10T01:16:09;12.80;99.90
13354;DHT22;6746;50.892;4.064;2023-05-10T01:18:50;12.80;99.90
13354;DHT22;6746;50.892;4.064;2023-05-10T01:24:20;12.70;99.90
13354;DHT22;6746;50.892;4.064;2023-05-10T01:27:18;12.60;99.90
13354;DHT22;6746;50.892;4.064;2023-05-10T01:33:16;12.60;99.90
13354;DHT22;6746;50.892;4.064;2023-05-10T01:39:24;12.70;99.90
13354;DHT22;6746;50.892;4.064;2023-05-10T01:42:21;12.70;99.90
13354;DHT22;6746;50.892;4.064;2023-05-10T01:47:43;12.70;99.90
13354;DHT22;6746;50.892;4.064;2023-05-10T01:50:22;12.70;99.90
13354;DHT22;6746;50.892;4.064;2023-05-10T01:53:02;12.70;99.90
13354;DHT22;6746;50.892;4.064;2023-05-10T01:55:44;12.70;99.90
13354;DHT22;6746;50.892;4.064;2023-05-10T01:58:31;12.80;99.90
13354;DHT22;6746;50.892;4.064;2023-05-10T02:01:05;12.80;99.90
13354;DHT22;6746;50.892;4.064;2023-05-10T02:03:43;12.80;99.90
13354;DHT22;6746;50.892;4.064;2023-05-10T02:06:21;12.80;99.90
13354;DHT22;6746;50.892;4.064;2023-05-10T02:09:09;12.80;99.90
13354;DHT22;6746;50.892;4.064;2023-05-10T02:11:50;12.80;99.90
13354;DHT22;6746;50.892;4.064;2023-05-10T02:14:28;12.70;99.90
13354;DHT22;6746;50.892;4.064;2023-05-10T02:17:14;12.70;99.90
13354;DHT22;6746;50.892;4.064;2023-05-10T02:19:52;12.70;99.90
13354;DHT22;6746;50.892;4.064;2023-05-10T02:22:33;12.70;99.90
13354;DHT22;6746;50.892;4.064;2023-05-10T02:25:11;12.70;99.90
13354;DHT22;6746;50.892;4.064;2023-05-10T02:27:53;12.70;99.90
13354;DHT22;6746;50.892;4.064;2023-05-10T02:30:31;12.70;99.90
13354;DHT22;6746;50.892;4.064;2023-05-10T02:33:13;12.70;99.90
13354;DHT22;6746;50.892;4.064;2023-05-10T02:35:51;12.70;99.90
13354;DHT22;6746;50.892;4.064;2023-05-10T02:38:37;12.60;99.90
13354;DHT22;6746;50.892;4.064;2023-05-10T02:41:15;12.60;99.90
13354;DHT22;6746;50.892;4.064;2023-05-10T02:44:03;12.60;99.90
13354;DHT22;6746;50.892;4.064;2023-05-10T02:46:50;12.60;99.90
13354;DHT22;6746;50.892;4.064;2023-05-10T02:49:38;12.60;99.90
13354;DHT22;6746;50.892;4.064;2023-05-10T02:52:21;12.60;99.90
13354;DHT22;6746;50.892;4.064;2023-05-10T02:54:58;12.60;99.90
13354;DHT22;6746;50.892;4.064;2023-05-10T02:57:40;12.60;99.90
13354;DHT22;6746;50.892;4.064;2023-05-10T03:00:16;12.60;99.90
13354;DHT22;6746;50.892;4.064;2023-05-10T03:03:04;12.60;99.90
13354;DHT22;6746;50.892;4.064;2023-05-10T03:05:51;12.60;99.90
13354;DHT22;6746;50.892;4.064;2023-05-10T03:08:39;12.60;99.90
13354;DHT22;6746;50.892;4.064;2023-05-10T03:11:32;12.60;99.90
13354;DHT22;6746;50.892;4.064;2023-05-10T03:14:34;12.60;99.90
13354;DHT22;6746;50.892;4.064;2023-05-10T03:20:08;12.60;99.90
13354;DHT22;6746;50.892;4.064;2023-05-10T03:22:45;12.60;99.90
13354;DHT22;6746;50.892;4.064;2023-05-10T03:25:23;12.60;99.90
13354;DHT22;6746;50.892;4.064;2023-05-10T03:30:52;12.60;99.90
13354;DHT22;6746;50.892;4.064;2023-05-10T03:33:30;12.60;99.90
13354;DHT22;6746;50.892;4.064;2023-05-10T03:36:08;12.70;99.90
13354;DHT22;6746;50.892;4.064;2023-05-10T03:38:46;12.70;99.90
13354;DHT22;6746;50.892;4.064;2023-05-10T03:41:24;12.70;99.90
13354;DHT22;6746;50.892;4.064;2023-05-10T03:44:12;12.70;99.90
13354;DHT22;6746;50.892;4.064;2023-05-10T03:46:50;12.70;99.90
13354;DHT22;6746;50.892;4.064;2023-05-10T03:49:28;12.70;99.90
13354;DHT22;6746;50.892;4.064;2023-05-10T03:52:09;12.60;99.90
13354;DHT22;6746;50.892;4.064;2023-05-10T03:54:47;12.70;99.90
13354;DHT22;6746;50.892;4.064;2023-05-10T03:57:28;12.70;99.90
13354;DHT22;6746;50.892;4.064;2023-05-10T04:00:06;12.70;99.90
13354;DHT22;6746;50.892;4.064;2023-05-10T04:02:44;12.70;99.90
13354;DHT22;6746;50.892;4.064;2023-05-10T04:05:22;12.70;99.90
13354;DHT22;6746;50.892;4.064;2023-05-10T04:08:03;12.60;99.90
13354;DHT22;6746;50.892;4.064;2023-05-10T04:10:41;12.70;99.90
13354;DHT22;6746;50.892;4.064;2023-05-10T04:13:29;12.70;99.90
13354;DHT22;6746;50.892;4.064;2023-05-10T04:16:16;12.70;99.90
13354;DHT22;6746;50.892;4.064;2023-05-10T04:19:04;12.60;99.90
13354;DHT22;6746;50.892;4.064;2023-05-10T04:21:52;12.70;99.90
13354;DHT22;6746;50.892;4.064;2023-05-10T04:24:30;12.60;99.90
13354;DHT22;6746;50.892;4.064;2023-05-10T04:27:08;12.60;99.90
13354;DHT22;6746;50.892;4.064;2023-05-10T04:29:49;12.60;99.90
13354;DHT22;6746;50.892;4.064;2023-05-10T04:32:27;12.60;99.90
13354;DHT22;6746;50.892;4.064;2023-05-10T04:35:15;12.60;99.90
13354;DHT22;6746;50.892;4.064;2023-05-10T04:38:02;12.60;99.90
13354;DHT22;6746;50.892;4.064;2023-05-10T04:40:40;12.60;99.90
13354;DHT22;6746;50.892;4.064;2023-05-10T04:43:19;12.60;99.90
13354;DHT22;6746;50.892;4.064;2023-05-10T04:45:59;12.60;99.90
13354;DHT22;6746;50.892;4.064;2023-05-10T04:48:38;12.60;99.90
13354;DHT22;6746;50.892;4.064;2023-05-10T04:51:25;12.60;99.90
13354;DHT22;6746;50.892;4.064;2023-05-10T04:54:13;12.50;99.90
13354;DHT22;6746;50.892;4.064;2023-05-10T04:57:01;12.50;99.90
13354;DHT22;6746;50.892;4.064;2023-05-10T04:59:39;12.50;99.90
13354;DHT22;6746;50.892;4.064;2023-05-10T05:02:17;12.50;99.90
13354;DHT22;6746;50.892;4.064;2023-05-10T05:05:05;12.50;99.90
13354;DHT22;6746;50.892;4.064;2023-05-10T05:07:52;12.50;99.90
13354;DHT22;6746;50.892;4.064;2023-05-10T05:10:28;12.50;99.90
13354;DHT22;6746;50.892;4.064;2023-05-10T05:12:57;12.40;99.90
13354;DHT22;6746;50.892;4.064;2023-05-10T05:15:25;12.40;99.90
13354;DHT22;6746;50.892;4.064;2023-05-10T05:17:53;12.40;99.90
13354;DHT22;6746;50.892;4.064;2023-05-10T05:20:32;12.40;99.90
13354;DHT22;6746;50.892;4.064;2023-05-10T05:23:02;12.40;99.90
13354;DHT22;6746;50.892;4.064;2023-05-10T05:25:31;12.40;99.90
13354;DHT22;6746;50.892;4.064;2023-05-10T05:27:59;12.40;99.90
13354;DHT22;6746;50.892;4.064;2023-05-10T05:30:27;12.40;99.90
13354;DHT22;6746;50.892;4.064;2023-05-10T05:33:05;12.40;99.90
13354;DHT22;6746;50.892;4.064;2023-05-10T05:35:37;12.40;99.90
13354;DHT22;6746;50.892;4.064;2023-05-10T05:38:05;12.50;99.90
13354;DHT22;6746;50.892;4.064;2023-05-10T05:40:44;12.50;99.90
13354;DHT22;6746;50.892;4.064;2023-05-10T05:43:12;12.50;99.90
13354;DHT22;6746;50.892;4.064;2023-05-10T05:45:42;12.50;99.90
13354;DHT22;6746;50.892;4.064;2023-05-10T05:48:18;12.50;99.90
13354;DHT22;6746;50.892;4.064;2023-05-10T05:50:47;12.60;99.90
13354;DHT22;6746;50.892;4.064;2023-05-10T05:53:18;12.50;99.90
13354;DHT22;6746;50.892;4.064;2023-05-10T05:55:50;12.60;99.90
13354;DHT22;6746;50.892;4.064;2023-05-10T05:58:21;12.50;99.90
13354;DHT22;6746;50.892;4.064;2023-05-10T06:00:52;12.60;99.90
13354;DHT22;6746;50.892;4.064;2023-05-10T06:03:20;12.60;99.90
13354;DHT22;6746;50.892;4.064;2023-05-10T06:05:49;12.60;99.90
13354;DHT22;6746;50.892;4.064;2023-05-10T06:08:23;12.60;99.90
13354;DHT22;6746;50.892;4.064;2023-05-10T06:10:51;12.60;99.90
13354;DHT22;6746;50.892;4.064;2023-05-10T06:13:22;12.60;99.90
13354;DHT22;6746;50.892;4.064;2023-05-10T06:15:51;12.60;99.90
13354;DHT22;6746;50.892;4.064;2023-05-10T06:18:27;12.60;99.90
13354;DHT22;6746;50.892;4.064;2023-05-10T06:20:55;12.60;99.90
13354;DHT22;6746;50.892;4.064;2023-05-10T06:23:29;12.60;99.90
13354;DHT22;6746;50.892;4.064;2023-05-10T06:25:59;12.60;99.90
13354;DHT22;6746;50.892;4.064;2023-05-10T06:28:37;12.60;99.90
13354;DHT22;6746;50.892;4.064;2023-05-10T06:31:16;12.50;99.90
13354;DHT22;6746;50.892;4.064;2023-05-10T06:33:49;12.50;99.90
13354;DHT22;6746;50.892;4.064;2023-05-10T06:36:19;12.50;99.90
13354;DHT22;6746;50.892;4.064;2023-05-10T06:38:57;12.40;99.90
13354;DHT22;6746;50.892;4.064;2023-05-10T06:41:25;12.40;99.90
13354;DHT22;6746;50.892;4.064;2023-05-10T06:44:01;12.50;99.90
13354;DHT22;6746;50.892;4.064;2023-05-10T06:46:30;12.60;99.90
13354;DHT22;6746;50.892;4.064;2023-05-10T06:49:08;12.60;99.90
13354;DHT22;6746;50.892;4.064;2023-05-10T06:51:37;12.80;99.90
13354;DHT22;6746;50.892;4.064;2023-05-10T06:54:05;12.80;99.90
13354;DHT22;6746;50.892;4.064;2023-05-10T06:56:33;12.90;99.90
13354;DHT22;6746;50.892;4.064;2023-05-10T06:59:02;13.00;99.90
13354;DHT22;6746;50.892;4.064;2023-05-10T07:01:40;13.10;99.90
13354;DHT22;6746;50.892;4.064;2023-05-10T07:04:16;13.10;99.90
13354;DHT22;6746;50.892;4.064;2023-05-10T07:06:44;13.20;99.90
13354;DHT22;6746;50.892;4.064;2023-05-10T07:09:13;13.30;99.90
13354;DHT22;6746;50.892;4.064;2023-05-10T07:11:41;13.30;99.90
13354;DHT22;6746;50.892;4.064;2023-05-10T07:14:19;13.30;99.90
13354;DHT22;6746;50.892;4.064;2023-05-10T07:16:57;13.30;99.90
13354;DHT22;6746;50.892;4.064;2023-05-10T07:19:45;13.40;99.90
13354;DHT22;6746;50.892;4.064;2023-05-10T07:22:23;13.50;99.90
13354;DHT22;6746;50.892;4.064;2023-05-10T07:25:01;13.50;99.90
13354;DHT22;6746;50.892;4.064;2023-05-10T07:27:44;13.40;99.90
13354;DHT22;6746;50.892;4.064;2023-05-10T07:30:13;13.30;99.90
13354;DHT22;6746;50.892;4.064;2023-05-10T07:32:41;13.20;99.90
13354;DHT22;6746;50.892;4.064;2023-05-10T07:35:09;13.20;99.90
13354;DHT22;6746;50.892;4.064;2023-05-10T07:37:40;13.20;99.90
13354;DHT22;6746;50.892;4.064;2023-05-10T07:40:09;13.10;99.90
13354;DHT22;6746;50.892;4.064;2023-05-10T07:42:43;13.00;99.90
13354;DHT22;6746;50.892;4.064;2023-05-10T07:45:11;13.00;99.90
13354;DHT22;6746;50.892;4.064;2023-05-10T07:47:49;13.00;99.90
13354;DHT22;6746;50.892;4.064;2023-05-10T07:50:18;12.90;99.90
13354;DHT22;6746;50.892;4.064;2023-05-10T07:52:46;12.80;99.90
13354;DHT22;6746;50.892;4.064;2023-05-10T07:55:22;12.80;99.90
13354;DHT22;6746;50.892;4.064;2023-05-10T07:57:51;12.80;99.90
13354;DHT22;6746;50.892;4.064;2023-05-10T08:00:29;12.80;99.90
13354;DHT22;6746;50.892;4.064;2023-05-10T08:03:07;12.90;99.90
13354;DHT22;6746;50.892;4.064;2023-05-10T08:05:45;12.90;99.90
13354;DHT22;6746;50.892;4.064;2023-05-10T08:08:33;12.90;99.90
13354;DHT22;6746;50.892;4.064;2023-05-10T08:11:11;12.70;99.90
13354;DHT22;6746;50.892;4.064;2023-05-10T08:13:49;12.90;99.90
13354;DHT22;6746;50.892;4.064;2023-05-10T08:16:27;12.90;99.90
13354;DHT22;6746;50.892;4.064;2023-05-10T08:18:55;12.90;99.90
13354;DHT22;6746;50.892;4.064;2023-05-10T08:21:24;13.00;99.90
13354;DHT22;6746;50.892;4.064;2023-05-10T08:24:00;13.00;99.90
13354;DHT22;6746;50.892;4.064;2023-05-10T08:26:28;13.10;99.90
13354;DHT22;6746;50.892;4.064;2023-05-10T08:28:57;13.20;99.90
13354;DHT22;6746;50.892;4.064;2023-05-10T08:31:25;13.20;99.90
13354;DHT22;6746;50.892;4.064;2023-05-10T08:33:54;13.20;99.90
13354;DHT22;6746;50.892;4.064;2023-05-10T08:36:22;13.20;99.90
13354;DHT22;6746;50.892;4.064;2023-05-10T08:39:00;13.10;99.90
13354;DHT22;6746;50.892;4.064;2023-05-10T08:41:39;13.10;99.90
13354;DHT22;6746;50.892;4.064;2023-05-10T08:44:17;13.10;99.90
13354;DHT22;6746;50.892;4.064;2023-05-10T08:46:55;13.10;99.90
13354;DHT22;6746;50.892;4.064;2023-05-10T08:49:33;13.20;99.90
13354;DHT22;6746;50.892;4.064;2023-05-10T08:52:02;13.20;99.90
13354;DHT22;6746;50.892;4.064;2023-05-10T08:54:31;13.20;99.90
13354;DHT22;6746;50.892;4.064;2023-05-10T08:57:01;13.30;99.90
13354;DHT22;6746;50.892;4.064;2023-05-10T08:59:29;13.30;99.90
13354;DHT22;6746;50.892;4.064;2023-05-10T09:02:08;13.20;99.90
13354;DHT22;6746;50.892;4.064;2023-05-10T09:04:45;13.30;99.90
13354;DHT22;6746;50.892;4.064;2023-05-10T09:07:17;13.20;99.90
13354;DHT22;6746;50.892;4.064;2023-05-10T09:09:45;13.10;99.90
13354;DHT22;6746;50.892;4.064;2023-05-10T09:12:23;13.10;99.90
13354;DHT22;6746;50.892;4.064;2023-05-10T09:15:01;13.10;99.90
13354;DHT22;6746;50.892;4.064;2023-05-10T09:17:35;13.00;99.90
13354;DHT22;6746;50.892;4.064;2023-05-10T09:20:03;13.00;99.90
13354;DHT22;6746;50.892;4.064;2023-05-10T09:22:41;13.10;99.90
13354;DHT22;6746;50.892;4.064;2023-05-10T09:25:13;13.20;99.90
13354;DHT22;6746;50.892;4.064;2023-05-10T09:27:41;13.20;99.90
13354;DHT22;6746;50.892;4.064;2023-05-10T09:30:25;13.30;99.90
13354;DHT22;6746;50.892;4.064;2023-05-10T09:32:58;13.50;99.90
13354;DHT22;6746;50.892;4.064;2023-05-10T09:35:28;13.50;99.90
13354;DHT22;6746;50.892;4.064;2023-05-10T09:38:05;13.60;99.90
13354;DHT22;6746;50.892;4.064;2023-05-10T09:40:34;13.60;99.90
13354;DHT22;6746;50.892;4.064;2023-05-10T09:43:12;13.50;99.90
13354;DHT22;6746;50.892;4.064;2023-05-10T09:45:50;13.40;99.90
13354;DHT22;6746;50.892;4.064;2023-05-10T09:48:28;13.40;99.90
13354;DHT22;6746;50.892;4.064;2023-05-10T09:51:06;13.40;99.90
13354;DHT22;6746;50.892;4.064;2023-05-10T09:53:44;13.50;99.90
13354;DHT22;6746;50.892;4.064;2023-05-10T09:56:33;13.50;99.90
13354;DHT22;6746;50.892;4.064;2023-05-10T09:59:04;13.60;99.90
13354;DHT22;6746;50.892;4.064;2023-05-10T10:01:33;13.60;99.90
13354;DHT22;6746;50.892;4.064;2023-05-10T10:04:04;13.60;99.90
13354;DHT22;6746;50.892;4.064;2023-05-10T10:06:38;13.80;99.90
13354;DHT22;6746;50.892;4.064;2023-05-10T10:09:07;13.80;99.90
13354;DHT22;6746;50.892;4.064;2023-05-10T10:11:39;14.00;99.90
13354;DHT22;6746;50.892;4.064;2023-05-10T10:14:08;14.10;99.90
13354;DHT22;6746;50.892;4.064;2023-05-10T10:16:46;14.00;99.90
13354;DHT22;6746;50.892;4.064;2023-05-10T10:19:24;14.00;99.90
13354;DHT22;6746;50.892;4.064;2023-05-10T10:21:58;14.20;99.90
13354;DHT22;6746;50.892;4.064;2023-05-10T10:24:37;14.20;99.90
13354;DHT22;6746;50.892;4.064;2023-05-10T10:27:19;14.30;99.90
13354;DHT22;6746;50.892;4.064;2023-05-10T10:35:41;14.60;99.90
13354;DHT22;6746;50.892;4.064;2023-05-10T10:38:09;14.80;99.90
13354;DHT22;6746;50.892;4.064;2023-05-10T10:40:38;14.90;99.90
13354;DHT22;6746;50.892;4.064;2023-05-10T10:43:28;15.00;99.90
13354;DHT22;6746;50.892;4.064;2023-05-10T10:46:12;15.20;99.90
13354;DHT22;6746;50.892;4.064;2023-05-10T10:48:50;15.30;99.90
13354;DHT22;6746;50.892;4.064;2023-05-10T10:51:39;15.20;99.90
13354;DHT22;6746;50.892;4.064;2023-05-10T10:54:12;15.30;99.90
13354;DHT22;6746;50.892;4.064;2023-05-10T10:56:41;15.40;99.90
13354;DHT22;6746;50.892;4.064;2023-05-10T10:59:29;15.50;99.90
13354;DHT22;6746;50.892;4.064;2023-05-10T11:02:04;15.50;99.90
13354;DHT22;6746;50.892;4.064;2023-05-10T11:04:52;15.60;99.90
13354;DHT22;6746;50.892;4.064;2023-05-10T11:07:30;15.70;99.90
13354;DHT22;6746;50.892;4.064;2023-05-10T11:10:09;15.90;99.90
13354;DHT22;6746;50.892;4.064;2023-05-10T11:13:00;15.80;99.90
13354;DHT22;6746;50.892;4.064;2023-05-10T11:15:38;15.60;99.90
13354;DHT22;6746;50.892;4.064;2023-05-10T11:18:26;15.40;99.90
13354;DHT22;6746;50.892;4.064;2023-05-10T11:21:08;15.40;99.90
13354;DHT22;6746;50.892;4.064;2023-05-10T11:26:25;15.80;99.90
13354;DHT22;6746;50.892;4.064;2023-05-10T11:29:01;15.90;99.90
13354;DHT22;6746;50.892;4.064;2023-05-10T11:31:30;16.00;99.90
13354;DHT22;6746;50.892;4.064;2023-05-10T11:34:09;16.20;99.90
13354;DHT22;6746;50.892;4.064;2023-05-10T11:36:47;16.20;99.90
13354;DHT22;6746;50.892;4.064;2023-05-10T11:39:34;16.20;99.90
13354;DHT22;6746;50.892;4.064;2023-05-10T11:42:11;15.90;99.90
13354;DHT22;6746;50.892;4.064;2023-05-10T11:44:39;16.10;99.90
13354;DHT22;6746;50.892;4.064;2023-05-10T11:47:27;16.00;99.90
13354;DHT22;6746;50.892;4.064;2023-05-10T11:50:06;16.00;99.90
13354;DHT22;6746;50.892;4.064;2023-05-10T11:52:44;16.10;99.90
13354;DHT22;6746;50.892;4.064;2023-05-10T11:55:33;16.10;99.90
13354;DHT22;6746;50.892;4.064;2023-05-10T11:58:10;16.20;99.90
13354;DHT22;6746;50.892;4.064;2023-05-10T12:00:49;16.40;99.90
13354;DHT22;6746;50.892;4.064;2023-05-10T12:03:22;16.50;99.90
13354;DHT22;6746;50.892;4.064;2023-05-10T12:05:51;16.60;99.90
13354;DHT22;6746;50.892;4.064;2023-05-10T12:08:29;16.50;99.90
13354;DHT22;6746;50.892;4.064;2023-05-10T12:11:11;16.40;99.90
13354;DHT22;6746;50.892;4.064;2023-05-10T12:13:49;16.40;99.90
13354;DHT22;6746;50.892;4.064;2023-05-10T12:16:27;16.40;99.90
13354;DHT22;6746;50.892;4.064;2023-05-10T12:18:58;16.40;99.90
13354;DHT22;6746;50.892;4.064;2023-05-10T12:21:29;16.50;99.90
13354;DHT22;6746;50.892;4.064;2023-05-10T12:24:02;16.50;99.90
13354;DHT22;6746;50.892;4.064;2023-05-10T12:26:40;16.50;99.90
13354;DHT22;6746;50.892;4.064;2023-05-10T12:29:18;16.50;99.90
13354;DHT22;6746;50.892;4.064;2023-05-10T12:31:57;16.60;99.90
13354;DHT22;6746;50.892;4.064;2023-05-10T12:34:44;16.50;99.90
13354;DHT22;6746;50.892;4.064;2023-05-10T12:37:24;16.40;99.90
13354;DHT22;6746;50.892;4.064;2023-05-10T12:40:01;16.40;99.90
13354;DHT22;6746;50.892;4.064;2023-05-10T12:42:43;16.40;99.90
13354;DHT22;6746;50.892;4.064;2023-05-10T12:45:23;16.30;99.90
13354;DHT22;6746;50.892;4.064;2023-05-10T12:47:59;16.30;99.90
13354;DHT22;6746;50.892;4.064;2023-05-10T12:50:27;16.40;99.90
13354;DHT22;6746;50.892;4.064;2023-05-10T12:53:06;16.20;99.90
13354;DHT22;6746;50.892;4.064;2023-05-10T12:55:54;16.20;99.90
13354;DHT22;6746;50.892;4.064;2023-05-10T12:58:32;16.20;99.90
13354;DHT22;6746;50.892;4.064;2023-05-10T13:01:11;16.20;99.90
13354;DHT22;6746;50.892;4.064;2023-05-10T13:03:55;16.30;99.90
13354;DHT22;6746;50.892;4.064;2023-05-10T13:06:33;16.40;99.90
13354;DHT22;6746;50.892;4.064;2023-05-10T13:09:21;16.40;99.90
13354;DHT22;6746;50.892;4.064;2023-05-10T13:11:59;16.60;99.90
13354;DHT22;6746;50.892;4.064;2023-05-10T13:14:33;16.60;99.90
13354;DHT22;6746;50.892;4.064;2023-05-10T13:17:02;16.60;99.90
13354;DHT22;6746;50.892;4.064;2023-05-10T13:19:35;16.50;99.90
13354;DHT22;6746;50.892;4.064;2023-05-10T13:22:04;16.50;99.90
13354;DHT22;6746;50.892;4.064;2023-05-10T13:24:35;16.60;99.90
13354;DHT22;6746;50.892;4.064;2023-05-10T13:27:04;16.60;99.90
13354;DHT22;6746;50.892;4.064;2023-05-10T13:29:43;16.70;99.90
13354;DHT22;6746;50.892;4.064;2023-05-10T13:32:14;16.50;99.90
13354;DHT22;6746;50.892;4.064;2023-05-10T13:34:43;16.50;99.90
13354;DHT22;6746;50.892;4.064;2023-05-10T13:37:22;16.50;99.90
13354;DHT22;6746;50.892;4.064;2023-05-10T13:40:00;16.60;99.90
13354;DHT22;6746;50.892;4.064;2023-05-10T13:42:46;16.60;99.90
13354;DHT22;6746;50.892;4.064;2023-05-10T13:45:24;16.60;99.90
13354;DHT22;6746;50.892;4.064;2023-05-10T13:48:02;17.00;99.90
13354;DHT22;6746;50.892;4.064;2023-05-10T13:50:40;16.90;99.90
13354;DHT22;6746;50.892;4.064;2023-05-10T13:53:18;16.90;99.90
13354;DHT22;6746;50.892;4.064;2023-05-10T13:55:57;16.90;99.90
13354;DHT22;6746;50.892;4.064;2023-05-10T13:58:34;17.20;99.90
13354;DHT22;6746;50.892;4.064;2023-05-10T14:01:06;17.30;99.90
13354;DHT22;6746;50.892;4.064;2023-05-10T14:03:35;17.30;99.90
13354;DHT22;6746;50.892;4.064;2023-05-10T14:06:04;17.30;99.90
13354;DHT22;6746;50.892;4.064;2023-05-10T14:08:33;17.10;99.90
13354;DHT22;6746;50.892;4.064;2023-05-10T14:11:04;16.90;99.90
13354;DHT22;6746;50.892;4.064;2023-05-10T14:13:33;16.70;99.90
13354;DHT22;6746;50.892;4.064;2023-05-10T14:16:08;16.40;99.90
13354;DHT22;6746;50.892;4.064;2023-05-10T14:18:37;16.30;99.90
13354;DHT22;6746;50.892;4.064;2023-05-10T14:21:15;16.20;99.90
13354;DHT22;6746;50.892;4.064;2023-05-10T14:23:46;16.00;99.90
13354;DHT22;6746;50.892;4.064;2023-05-10T14:26:25;15.70;99.90
13354;DHT22;6746;50.892;4.064;2023-05-10T14:29:13;15.30;99.90
13354;DHT22;6746;50.892;4.064;2023-05-10T14:31:46;15.10;99.90
13354;DHT22;6746;50.892;4.064;2023-05-10T14:34:15;14.80;99.90
13354;DHT22;6746;50.892;4.064;2023-05-10T14:36:54;14.60;99.90
13354;DHT22;6746;50.892;4.064;2023-05-10T14:39:32;14.50;99.90
13354;DHT22;6746;50.892;4.064;2023-05-10T14:42:03;14.40;99.90
13354;DHT22;6746;50.892;4.064;2023-05-10T14:44:32;14.40;99.90
13354;DHT22;6746;50.892;4.064;2023-05-10T14:47:04;14.20;99.90
13354;DHT22;6746;50.892;4.064;2023-05-10T14:49:39;14.00;99.90
13354;DHT22;6746;50.892;4.064;2023-05-10T14:52:17;14.00;99.90
13354;DHT22;6746;50.892;4.064;2023-05-10T14:54:56;14.00;99.90
13354;DHT22;6746;50.892;4.064;2023-05-10T14:57:34;14.00;99.90
13354;DHT22;6746;50.892;4.064;2023-05-10T15:00:22;14.10;99.90
13354;DHT22;6746;50.892;4.064;2023-05-10T15:02:58;14.10;99.90
13354;DHT22;6746;50.892;4.064;2023-05-10T15:05:27;14.20;99.90
13354;DHT22;6746;50.892;4.064;2023-05-10T15:08:00;14.20;99.90
13354;DHT22;6746;50.892;4.064;2023-05-10T15:10:29;14.20;99.90
13354;DHT22;6746;50.892;4.064;2023-05-10T15:13:16;14.30;99.90
13354;DHT22;6746;50.892;4.064;2023-05-10T15:15:54;14.30;99.90
13354;DHT22;6746;50.892;4.064;2023-05-10T15:18:32;14.30;99.90
13354;DHT22;6746;50.892;4.064;2023-05-10T15:21:11;14.30;99.90
13354;DHT22;6746;50.892;4.064;2023-05-10T15:23:50;14.30;99.90
13354;DHT22;6746;50.892;4.064;2023-05-10T15:26:28;14.30;99.90
13354;DHT22;6746;50.892;4.064;2023-05-10T15:29:06;14.30;99.90
13354;DHT22;6746;50.892;4.064;2023-05-10T15:31:54;14.30;99.90
13354;DHT22;6746;50.892;4.064;2023-05-10T15:34:32;14.30;99.90
13354;DHT22;6746;50.892;4.064;2023-05-10T15:37:01;14.30;99.90
13354;DHT22;6746;50.892;4.064;2023-05-10T15:39:29;14.40;99.90
13354;DHT22;6746;50.892;4.064;2023-05-10T15:42:01;14.40;99.90
13354;DHT22;6746;50.892;4.064;2023-05-10T15:44:30;14.40;99.90
13354;DHT22;6746;50.892;4.064;2023-05-10T15:46:59;14.40;99.90
13354;DHT22;6746;50.892;4.064;2023-05-10T15:49:28;14.40;99.90
13354;DHT22;6746;50.892;4.064;2023-05-10T15:52:06;14.50;99.90
13354;DHT22;6746;50.892;4.064;2023-05-10T15:54:45;14.50;99.90
13354;DHT22;6746;50.892;4.064;2023-05-10T15:57:22;14.50;99.90
13354;DHT22;6746;50.892;4.064;2023-05-10T15:59:58;14.50;99.90
13354;DHT22;6746;50.892;4.064;2023-05-10T16:02:46;14.50;99.90
13354;DHT22;6746;50.892;4.064;2023-05-10T16:05:25;14.60;99.90
13354;DHT22;6746;50.892;4.064;2023-05-10T16:08:03;14.70;99.90
13354;DHT22;6746;50.892;4.064;2023-05-10T16:10:41;14.70;99.90
13354;DHT22;6746;50.892;4.064;2023-05-10T16:13:19;14.80;99.90
13354;DHT22;6746;50.892;4.064;2023-05-10T16:15:56;14.80;99.90
13354;DHT22;6746;50.892;4.064;2023-05-10T16:18:24;14.80;99.90
13354;DHT22;6746;50.892;4.064;2023-05-10T16:21:01;14.70;99.90
13354;DHT22;6746;50.892;4.064;2023-05-10T16:23:30;14.70;99.90
13354;DHT22;6746;50.892;4.064;2023-05-10T16:26:06;14.70;99.90
13354;DHT22;6746;50.892;4.064;2023-05-10T16:28:35;14.70;99.90
13354;DHT22;6746;50.892;4.064;2023-05-10T16:31:13;14.80;99.90
13354;DHT22;6746;50.892;4.064;2023-05-10T16:33:51;14.70;99.90
13354;DHT22;6746;50.892;4.064;2023-05-10T16:36:30;14.60;99.90
13354;DHT22;6746;50.892;4.064;2023-05-10T16:39:08;14.60;99.90
13354;DHT22;6746;50.892;4.064;2023-05-10T16:41:46;14.50;99.90
13354;DHT22;6746;50.892;4.064;2023-05-10T16:44:15;14.50;99.90
13354;DHT22;6746;50.892;4.064;2023-05-10T16:46:46;14.40;99.90
13354;DHT22;6746;50.892;4.064;2023-05-10T16:49:25;14.40;99.90
13354;DHT22;6746;50.892;4.064;2023-05-10T16:51:54;14.40;99.90
13354;DHT22;6746;50.892;4.064;2023-05-10T16:54:25;14.30;99.90
13354;DHT22;6746;50.892;4.064;2023-05-10T16:56:54;14.30;99.90
13354;DHT22;6746;50.892;4.064;2023-05-10T16:59:23;14.40;99.90
13354;DHT22;6746;50.892;4.064;2023-05-10T17:01:54;14.40;99.90
13354;DHT22;6746;50.892;4.064;2023-05-10T17:04:28;14.40;99.90
13354;DHT22;6746;50.892;4.064;2023-05-10T17:07:00;14.40;99.90
13354;DHT22;6746;50.892;4.064;2023-05-10T17:09:41;14.40;99.90
13354;DHT22;6746;50.892;4.064;2023-05-10T17:12:16;14.40;99.90